Main page
Satellite images 10-day forecastsClimateMarine weather Cyclones Lightning AirportsFAQ Newsletter About
Weather : Europe Africa North America South America Asia Australia-Oceania Others
Languages Contact

Tunis, Tunisia

Tunis–Carthage International Airport

latitude: 36-50N, longitude: 010-14E, elevation: 3 m


METAR: DTTA 270700Z 25009KT 9999 SCT027TCU 10/08 Q1012 NOSIG
TAF: DTTA 270506Z 2706/2806 29008KT 9999 SCT026 TEMPO 2706/2715 VRB33KT 3000 -RA -SHRA FEW023CB

Time: 08:26 (07:26 UTC)

Current weather observation

The report was made 26 minutes ago, at 07:00 UTC
Wind 9 kt from the West/Southwest
Temperature 10°C
Humidity 87%
Pressure 1012 hPa
Visibility 10 km or more
Scattered clouds at a height of 2700 ft, Towering cumulus.

Change units

Forecast

The report was made 2 hours and 20 minutes ago, at 05:06 UTC
Forecast valid from 27 at 06 UTC to 28 at 06 UTC
Wind 8 kt from the West/Northwest
Visibility 10 km or more
Scattered clouds at a height of 2600 ft
Temporary
from 27 at 06 UTC to 27 at 15 UTC
Wind 33 kt from variable directions
Visibility: 3000 m
Few clouds at a height of 2300 ft, Cumulonimbus.
light rain, light rain showers
The information on this site is subject to a disclaimer
Weather : Europe Africa North America South America Asia Australia-Oceania Others
Satellite images 10-day forecastsClimateMarine weather Cyclones Lightning AirportsFAQ Languages Contact Newsletter About